windsock image

Welcome to Bigfield Strip.

anemometer image
     

 Help for dials.  
 
Local Met:

Wind:   
10 Min average:  
214 ° / 0.0 kts (0.0)
214° / 0.0

Temperature:  
7.7°C C
Dew Point:  
7.1°C C
QNH:  
Trend:  
1019.3 mb mb
+0.4mb/hr
BigField Strip. This image updates approximately every minute, it can have a two minute delay.  
 

Humidity:  
96 %
Sunrise:   04:48z
Sunset:   19:16z
Updated:  
  UTC
 
   More met info, trends, radar, history etc. available here   

LUTON Metar   EGGW 240520Z VRB02KT 1900 BR SCT002 OVC021 09/09 Q1019
 
  TAF   2014/04/24 06:15 TAF TAF EGGW 240500Z 2406/2506 18003KT 2000 BR SCT004 BKN030 PROB30 TEMPO 2406/2407 0300 FG BKN001 BECMG 2407/2410 9999 NSW TEMPO 2407/2410 BKN008 PROB40 TEMPO 2412/2418 6000 SHRA PROB30 2422/2501 5000 BR BKN004 BECMG 2501/2504 02010KT 3000 BR BKN002 TEMPO 2502/2506 0300 FG BKN000
 
BENSON Metar   EGUB 240450Z 22003KT 9000 BR FEW005 BKN008 08/08 Q1019 GRN
 
  TAF   2014/04/24 06:03 TAF EGUB 240448Z 2406/2415 VRB03KT 8000 BR BKN008 PROB30 TEMPO 2406/2408 3000 BR SCT004 BECMG 2407/2410 FEW020 TEMPO 2410/2412 SCT020
 
Big Field view 1 icon   Big Field view 2 icon   Big Field view 3 icon   Chart AL3a in PDF icon   Chart AL3a in Word icon

WARNING:
This information is provided by the Airstrip unofficial weather station, DO NOT depend on the data provided here for any purpose.
This page is updated for latest Metars & TAF's every 5 minutes. Refresh the browser to check for the lastest.
Page designed for a minimum browser size of 1024x768.
© Copyright 2014 BigField Strip. This page auto generated 05:46 UTC - 24/04/2014   Contact Us
Valid HTML 4.01 Transitional     Windows uptime: 3 Days 3 Hours 14 Minutes 27 Seconds    WD started: 02:37 21/04/14    Free memory: 1477MB     Valid CSS!